KPLN/PLN METAR and TAF weather

Enter ICAO airport designator
Station Type Date Time Source
KPLN METAR 2018/12/19 09:54 UTC NOAA

KPLN 190954Z AUTO 19005KT 10SM CLR 02/M01 A2984 RMK AO2 SLP114 T00221011


Station Type Date Time Source
KPLN Decoded METAR 2018/12/19 09:54 UTC NOAA

PELLSTON REGIONAL AIRPORT, MI, United States (KPLN) 45-34N 084-48W 217M
Dec 19, 2018 - 04:54 AM EST / 2018.12.19 0954 UTC
Wind: from the S (190 degrees) at 6 MPH (5 KT):0
Visibility: 10 mile(s):0
Sky conditions: clear
Temperature: 36.0 F (2.2 C)
Dew Point: 30.0 F (-1.1 C)
Relative Humidity: 78%
Pressure (altimeter): 29.84 in. Hg (1010 hPa)
ob: KPLN 190954Z AUTO 19005KT 10SM CLR 02/M01 A2984 RMK AO2 SLP114 T00221011
cycle: 10

Station Type Date Time Source
KPLN TAF 2018/12/19 06:22 UTC NOAA

TAF KPLN 190520Z 1906/2006 21010KT P6SM SCT250 WS015/23040KT
FM190900 22007KT P6SM SCT022 BKN200 WS015/24035KT
FM191400 22008KT P6SM SCT025 BKN120
FM192000 21007KT P6SM BKN022
FM200100 17005KT P6SM OVC018


Example: see airport list